Huntington, TX (75949)

8:34 AM CST on February 07, 2016 (GMT -0600)
Huntington, Texas | | Change Station
CLOSE
Current Station
Personal Weather Station
Location: Huntington, TX
Elevation: 274 ft
Nearby Weather Stations

Elev 274 ft 31.29 °N, 94.61 °W | Updated 2 minutes ago

Overcast
Overcast
31.4 °F
Feels Like 31 °F
N
0.0
Wind Variable Wind from NW
Gusts 0.0 mph

Today
High -- | Low -- °F
--% Chance of Precip.
Yesterday
High -- | Low -- °F
Precip. -- in
Pressure 30.30 in
Visibility 5.0 miles
Clouds Few 200 ft
Windchill 31 °F
Dew Point 30 °F
Humidity 96%
Rainfall 0.00 in
Snow Depth Not available.
7:06 AM 5:58 PM
Waning Crescent, 1% visible
METAR KLFK 071353Z AUTO 00000KT 5SM BR FEW002 M02/M02 A3030 RMK AO2 SLP260 T10171022
Pressure 30.30 in
Visibility 5.0 miles
Clouds Few 200 ft
Windchill 31 °F
Dew Point 30 °F
Humidity 96%
Rainfall 0.00 in
Snow Depth Not available.
7:06 AM 5:58 PM
Waning Crescent, 1% visible
METAR KLFK 071353Z AUTO 00000KT 5SM BR FEW002 M02/M02 A3030 RMK AO2 SLP260 T10171022

10-Day Weather Forecast

Almanac

Astronomy

Feb. 07, 2016 Rise Set
Actual Time
Civil Twilight
Nautical Twilight
Astronomical Twilight
Moon
Length of Visible Light
Length of Day
Tomorrow will be .
, % of the Moon is Illuminated

Today's Extremes

State Highs State Lows

Community

WunderPhotos

Upload Photos

1,891,204 photos uploaded!

WunderBlog® & News

Nearby

Air Quality

  Air Quality AQ Index Pollutant
Not available.

Snow Depth

Station Depth Elevation

Earthquake Activity

City Distance Mag. Time & Date
Minimum magnitude displayed is 2.5.

Coastal Water Temperatures

Place Temperature

Stations

Nearby Weather Stations

Station Location Temp. Windchill Dew Point Humidity Wind Precip. Elev Updated Type
                   

Watches & Warnings

There are currently no watches in effect.